createdAt,value
2022-12-04T00:02:06.395Z,102145.16
2022-12-04T00:04:33.138Z,102147.38
2022-12-04T00:06:59.776Z,102152.22
2022-12-04T00:09:26.399Z,102159.78
2022-12-04T00:11:52.982Z,102144.31
2022-12-04T00:14:19.649Z,102153.78
2022-12-04T00:16:46.235Z,102158.56
2022-12-04T00:19:12.801Z,102143.72
2022-12-04T00:21:40.499Z,102158.69
2022-12-04T00:24:07.187Z,102147.00
2022-12-04T00:26:34.020Z,102152.94
2022-12-04T00:29:00.586Z,102155.03
2022-12-04T00:31:29.064Z,102161.22
2022-12-04T00:33:55.724Z,102152.53
2022-12-04T00:36:24.479Z,102153.66
2022-12-04T00:38:51.535Z,102157.06
2022-12-04T00:41:21.968Z,102156.47
2022-12-04T00:43:48.754Z,102157.84
2022-12-04T00:46:16.343Z,102149.09
2022-12-04T00:48:43.322Z,102154.56
2022-12-04T00:51:13.714Z,102156.41
2022-12-04T00:53:40.750Z,102144.97
2022-12-04T00:56:10.179Z,102147.78
2022-12-04T00:58:36.964Z,102161.88
2022-12-04T01:01:09.494Z,102157.63
2022-12-04T01:03:36.555Z,102151.16
2022-12-04T01:06:04.521Z,102157.25
2022-12-04T01:08:31.268Z,102146.09
2022-12-04T01:10:57.841Z,102144.69
2022-12-04T01:13:25.214Z,102142.75
2022-12-04T01:15:51.926Z,102142.59
2022-12-04T01:18:19.092Z,102151.25
2022-12-04T01:20:50.667Z,102143.06
2022-12-04T01:23:17.872Z,102144.03
2022-12-04T01:25:58.793Z,102140.78
2022-12-04T01:28:26.389Z,102136.13
2022-12-04T01:31:05.705Z,102144.03
2022-12-04T01:33:33.614Z,102147.84
2022-12-04T01:36:01.954Z,102147.00
2022-12-04T01:38:28.738Z,102142.47
2022-12-04T01:40:55.953Z,102139.53
2022-12-04T01:43:23.255Z,102131.66
2022-12-04T01:45:53.553Z,102141.94
2022-12-04T01:48:26.604Z,102132.47
2022-12-04T01:50:58.678Z,102133.31
2022-12-04T01:53:25.609Z,102132.22
2022-12-04T01:55:52.560Z,102136.00
2022-12-04T01:58:35.765Z,102137.84
2022-12-04T02:01:08.784Z,102136.00
2022-12-04T02:03:36.954Z,102140.53
2022-12-04T02:06:03.636Z,102139.41
2022-12-04T02:08:30.699Z,102138.44
2022-12-04T02:11:19.610Z,102139.13
2022-12-04T02:14:07.913Z,102138.28
2022-12-04T02:16:55.566Z,102143.78
2022-12-04T02:19:53.503Z,102138.56
2022-12-04T02:22:25.909Z,102136.59
2022-12-04T02:25:07.999Z,102129.97
2022-12-04T02:27:40.505Z,102124.16
2022-12-04T02:30:10.283Z,102123.19
2022-12-04T02:32:47.245Z,102118.69
2022-12-04T02:35:32.594Z,102117.97
2022-12-04T02:38:18.391Z,102117.13
2022-12-04T02:40:49.637Z,102114.19
2022-12-04T02:43:22.065Z,102112.22
2022-12-04T02:45:59.221Z,102103.59
2022-12-04T02:48:29.599Z,102116.84
2022-12-04T02:50:59.946Z,102117.31
2022-12-04T02:53:32.049Z,102116.84
2022-12-04T02:56:21.443Z,102119.16
2022-12-04T02:58:54.092Z,102114.63
2022-12-04T03:01:26.695Z,102117.03
2022-12-04T03:04:04.913Z,102109.56
2022-12-04T03:06:36.072Z,102114.09
2022-12-04T03:09:12.674Z,102121.69
2022-12-04T03:11:43.684Z,102118.28
2022-12-04T03:14:19.248Z,102128.63
2022-12-04T03:16:48.189Z,102124.38
2022-12-04T03:19:20.591Z,102129.72
2022-12-04T03:21:56.406Z,102129.72
2022-12-04T03:24:36.996Z,102131.44
2022-12-04T03:27:38.727Z,102130.44
2022-12-04T03:30:13.307Z,102128.47
2022-12-04T03:32:50.111Z,102125.06
2022-12-04T03:35:18.378Z,102132.13
2022-12-04T03:38:05.005Z,102121.16
2022-12-04T03:40:39.130Z,102123.25
2022-12-04T03:43:19.643Z,102131.44
2022-12-04T03:46:05.611Z,102125.94
2022-12-04T03:48:53.629Z,102121.16
2022-12-04T03:51:33.384Z,102117.75
2022-12-04T03:54:09.627Z,102132.59
2022-12-04T03:56:44.871Z,102119.91
2022-12-04T03:59:19.955Z,102122.84
2022-12-04T04:01:49.480Z,102113.97
2022-12-04T04:04:23.162Z,102116.38
2022-12-04T04:07:02.791Z,102116.38
2022-12-04T04:09:35.656Z,102112.84
2022-12-04T04:12:30.947Z,102119.03
2022-12-04T04:15:22.740Z,102120.59
2022-12-04T04:18:09.978Z,102116.38
2022-12-04T04:21:03.456Z,102117.41
2022-12-04T04:23:52.215Z,102116.28
2022-12-04T04:26:19.016Z,102114.72
2022-12-04T04:28:46.137Z,102113.00
2022-12-04T04:31:28.012Z,102107.66
2022-12-04T04:34:09.941Z,102113.88
2022-12-04T04:36:57.473Z,102105.38
2022-12-04T04:39:29.786Z,102111.59
2022-12-04T04:42:04.122Z,102109.34
2022-12-04T04:44:45.132Z,102115.00
2022-12-04T04:47:20.219Z,102115.00
2022-12-04T04:49:51.881Z,102104.41
2022-12-04T04:52:22.394Z,102108.91
2022-12-04T04:54:48.988Z,102114.03
2022-12-04T04:57:26.547Z,102114.84
2022-12-04T04:59:53.543Z,102111.06
2022-12-04T05:02:20.454Z,102109.50
2022-12-04T05:04:46.982Z,102115.69
2022-12-04T05:07:13.524Z,102113.47
2022-12-04T05:09:41.507Z,102120.66
2022-12-04T05:12:08.622Z,102130.56
2022-12-04T05:14:35.168Z,102124.59
2022-12-04T05:17:02.194Z,102120.06
2022-12-04T05:19:51.498Z,102125.88
2022-12-04T05:22:18.728Z,102127.72
2022-12-04T05:24:45.289Z,102121.50
2022-12-04T05:27:11.835Z,102130.28
2022-12-04T05:29:38.876Z,102129.28
2022-12-04T05:32:06.472Z,102128.56
2022-12-04T05:34:33.075Z,102127.59
2022-12-04T05:36:59.742Z,102127.00
2022-12-04T05:39:26.233Z,102124.19
2022-12-04T05:41:52.761Z,102126.16
2022-12-04T05:44:19.314Z,102118.28
2022-12-04T05:46:45.911Z,102115.31
2022-12-04T05:49:12.487Z,102116.13
2022-12-04T05:51:39.304Z,102117.84
2022-12-04T05:54:05.821Z,102115.03
2022-12-04T05:56:32.348Z,102118.28
2022-12-04T05:58:58.840Z,102121.84
2022-12-04T06:01:25.403Z,102123.78
2022-12-04T06:03:52.293Z,102120.28
2022-12-04T06:06:22.560Z,102124.91
2022-12-04T06:08:54.995Z,102110.84
2022-12-04T06:11:24.813Z,102121.94
2022-12-04T06:13:51.445Z,102123.66
2022-12-04T06:16:21.202Z,102124.53
2022-12-04T06:18:52.659Z,102127.19
2022-12-04T06:21:20.400Z,102126.34
2022-12-04T06:23:47.642Z,102131.44
2022-12-04T06:26:14.754Z,102126.09
2022-12-04T06:28:41.398Z,102134.00
2022-12-04T06:31:10.585Z,102127.75
2022-12-04T06:33:37.713Z,102139.50
2022-12-04T06:36:11.040Z,102142.03
2022-12-04T06:38:39.503Z,102134.81
2022-12-04T06:41:08.300Z,102142.47
2022-12-04T06:43:35.365Z,102132.88
2022-12-04T06:46:05.774Z,102134.00
2022-12-04T06:48:33.563Z,102143.16
2022-12-04T06:51:05.678Z,102143.75
2022-12-04T06:53:33.491Z,102141.31
2022-12-04T06:56:02.703Z,102139.59
2022-12-04T06:58:29.767Z,102143.84
2022-12-04T07:00:57.315Z,102137.94
2022-12-04T07:03:25.733Z,102146.94
2022-12-04T07:05:52.632Z,102144.97
2022-12-04T07:08:19.240Z,102140.31
2022-12-04T07:10:45.827Z,102139.94
2022-12-04T07:13:12.328Z,102147.41
2022-12-04T07:15:38.906Z,102144.56
2022-12-04T07:18:05.640Z,102144.44
2022-12-04T07:20:32.446Z,102143.19
2022-12-04T07:23:03.987Z,102139.78
2022-12-04T07:25:35.813Z,102141.91
2022-12-04T07:28:02.353Z,102141.59
2022-12-04T07:30:28.891Z,102147.25
2022-12-04T07:32:55.388Z,102145.31
2022-12-04T07:35:21.994Z,102146.97
2022-12-04T07:37:48.839Z,102153.22
2022-12-04T07:40:15.411Z,102146.00
2022-12-04T07:42:41.959Z,102153.91
2022-12-04T07:45:09.069Z,102161.94
2022-12-04T07:47:36.512Z,102162.81
2022-12-04T07:50:04.575Z,102153.91
2022-12-04T07:52:31.242Z,102155.34
2022-12-04T07:54:58.028Z,102153.50
2022-12-04T07:57:24.556Z,102148.16
2022-12-04T07:59:51.051Z,102150.81
2022-12-04T08:02:17.617Z,102145.91
2022-12-04T08:04:44.215Z,102144.06
2022-12-04T08:07:10.879Z,102147.63
2022-12-04T08:09:37.693Z,102143.94
2022-12-04T08:12:04.417Z,102135.03
2022-12-04T08:14:30.939Z,102145.63
2022-12-04T08:16:57.601Z,102138.31
2022-12-04T08:19:24.420Z,102133.91
2022-12-04T08:21:51.078Z,102134.09
2022-12-04T08:24:17.640Z,102139.19
2022-12-04T08:26:44.241Z,102139.19
2022-12-04T08:29:10.869Z,102149.91
2022-12-04T08:31:37.523Z,102153.56
2022-12-04T08:34:05.844Z,102159.53
2022-12-04T08:36:33.282Z,102143.81
2022-12-04T08:38:59.973Z,102147.97
2022-12-04T08:41:27.654Z,102157.69
2022-12-04T08:43:55.350Z,102160.81
2022-12-04T08:46:23.299Z,102161.66
2022-12-04T08:48:50.200Z,102159.56
2022-12-04T08:51:19.537Z,102159.28
2022-12-04T08:53:46.326Z,102166.34
2022-12-04T08:56:13.770Z,102158.88
2022-12-04T08:58:40.599Z,102157.31
2022-12-04T09:01:09.127Z,102165.22
2022-12-04T09:03:35.755Z,102159.56
2022-12-04T09:06:04.700Z,102157.03
2022-12-04T09:08:32.477Z,102147.16
2022-12-04T09:11:17.449Z,102153.09
2022-12-04T09:13:45.317Z,102151.84
2022-12-04T09:16:15.440Z,102148.03
2022-12-04T09:18:42.618Z,102144.91
2022-12-04T09:21:12.438Z,102140.84
2022-12-04T09:23:39.866Z,102151.44
2022-12-04T09:26:18.699Z,102142.09
2022-12-04T09:28:46.311Z,102143.81
2022-12-04T09:31:12.960Z,102140.16
2022-12-04T09:33:39.594Z,102143.25
2022-12-04T09:36:06.583Z,102139.56
2022-12-04T09:38:33.167Z,102140.84
2022-12-04T09:41:14.211Z,102136.31
2022-12-04T09:44:03.132Z,102127.13
2022-12-04T09:46:37.688Z,102136.59
2022-12-04T09:49:12.537Z,102127.41
2022-12-04T09:51:42.249Z,102136.91
2022-12-04T09:54:18.424Z,102136.47
2022-12-04T09:56:53.757Z,102133.38
2022-12-04T09:59:31.964Z,102138.75
2022-12-04T10:02:24.941Z,102133.78
2022-12-04T10:04:51.617Z,102124.59
2022-12-04T10:07:31.044Z,102127.84
2022-12-04T10:10:26.668Z,102134.31
2022-12-04T10:12:56.145Z,102117.22
2022-12-04T10:15:43.889Z,102118.34
2022-12-04T10:18:21.454Z,102118.88
2022-12-04T10:20:51.112Z,102115.19
2022-12-04T10:23:39.565Z,102115.78
2022-12-04T10:26:14.893Z,102109.97
2022-12-04T10:28:55.284Z,102115.75
2022-12-04T10:31:23.172Z,102114.47
2022-12-04T10:33:49.727Z,102106.41
2022-12-04T10:36:19.878Z,102110.19
2022-12-04T10:39:16.851Z,102111.72
2022-12-04T10:42:25.400Z,102107.78
2022-12-04T10:44:52.785Z,102115.69
2022-12-04T10:47:22.215Z,102113.84
2022-12-04T10:49:48.976Z,102102.50
2022-12-04T10:52:15.585Z,102111.97
2022-12-04T10:54:50.139Z,102110.13
2022-12-04T10:57:18.193Z,102107.13
2022-12-04T10:59:53.104Z,102114.63
2022-12-04T11:02:21.670Z,102099.03
2022-12-04T11:04:57.179Z,102094.78
2022-12-04T11:07:27.408Z,102092.78
2022-12-04T11:10:03.399Z,102096.88
2022-12-04T11:12:30.605Z,102083.56
2022-12-04T11:15:03.947Z,102091.34
2022-12-04T11:17:30.563Z,102093.16
2022-12-04T11:20:21.137Z,102095.84
2022-12-04T11:22:57.157Z,102093.16
2022-12-04T11:25:26.717Z,102098.53
2022-12-04T11:27:59.909Z,102093.69
2022-12-04T11:30:37.709Z,102090.13
2022-12-04T11:33:14.896Z,102090.13
2022-12-04T11:35:41.810Z,102087.44
2022-12-04T11:38:15.622Z,102083.31
2022-12-04T11:40:50.617Z,102075.94
2022-12-04T11:43:18.748Z,102075.78
2022-12-04T11:46:01.862Z,102075.09
2022-12-04T11:48:31.137Z,102063.34
2022-12-04T11:51:10.339Z,102064.16
2022-12-04T11:53:47.765Z,102056.94
2022-12-04T11:56:23.349Z,102061.31
2022-12-04T11:59:07.767Z,102052.25
2022-12-04T12:01:56.317Z,102054.63
2022-12-04T12:04:46.305Z,102050.28
2022-12-04T12:07:22.013Z,102049.94
2022-12-04T12:09:53.358Z,102054.19
2022-12-04T12:12:38.419Z,102053.34
2022-12-04T12:15:19.374Z,102048.63
2022-12-04T12:18:19.202Z,102037.59
2022-12-04T12:21:12.769Z,102041.94
2022-12-04T12:24:01.296Z,102042.97
2022-12-04T12:26:43.711Z,102040.13
2022-12-04T12:29:23.322Z,102045.34
2022-12-04T12:31:57.749Z,102052.97
2022-12-04T12:34:35.835Z,102048.41
2022-12-04T12:37:17.931Z,102045.88
2022-12-04T12:40:16.877Z,102043.59
2022-12-04T12:42:58.248Z,102048.97
2022-12-04T12:45:36.804Z,102051.34
2022-12-04T12:48:36.737Z,102044.25
2022-12-04T12:51:29.577Z,102048.50
2022-12-04T12:54:09.553Z,102037.59
2022-12-04T12:56:46.180Z,102035.03
2022-12-04T12:59:20.242Z,102033.03
2022-12-04T13:01:58.674Z,102025.94
2022-12-04T13:04:43.423Z,102025.13
2022-12-04T13:07:23.898Z,102023.63
2022-12-04T13:10:00.573Z,102029.72
2022-12-04T13:12:28.586Z,102023.03
2022-12-04T13:14:55.270Z,102022.19
2022-12-04T13:17:33.574Z,102011.53
2022-12-04T13:20:09.622Z,102008.84
2022-12-04T13:22:45.929Z,102008.84
2022-12-04T13:25:37.129Z,102008.84
2022-12-04T13:28:16.987Z,102016.66
2022-12-04T13:30:52.126Z,102005.00
2022-12-04T13:33:40.878Z,101997.47
2022-12-04T13:36:17.299Z,101994.59
2022-12-04T13:39:08.613Z,101990.09
2022-12-04T13:41:38.847Z,101989.09
2022-12-04T13:44:26.002Z,101985.06
2022-12-04T13:47:01.777Z,101974.28
2022-12-04T13:49:34.874Z,101981.50
2022-12-04T13:52:04.620Z,101989.97
2022-12-04T13:54:37.809Z,101985.44
2022-12-04T13:57:30.534Z,101979.72
2022-12-04T14:00:08.160Z,101984.28
2022-12-04T14:02:37.560Z,101978.03
2022-12-04T14:05:14.395Z,101979.72
2022-12-04T14:07:45.427Z,101989.50
2022-12-04T14:10:14.972Z,101996.59
2022-12-04T14:12:49.720Z,101994.28
2022-12-04T14:15:32.351Z,101995.44
2022-12-04T14:18:27.726Z,101995.28
2022-12-04T14:21:01.277Z,101991.03
2022-12-04T14:23:39.001Z,101991.56
2022-12-04T14:26:06.041Z,101989.88
2022-12-04T14:28:36.106Z,101994.56
2022-12-04T14:31:23.460Z,101994.28
2022-12-04T14:33:56.319Z,101992.41
2022-12-04T14:36:33.548Z,101995.28
2022-12-04T14:39:13.976Z,101981.09
2022-12-04T14:41:40.969Z,101986.50
2022-12-04T14:44:19.309Z,101975.41
2022-12-04T14:46:50.505Z,101989.41
2022-12-04T14:49:29.230Z,101984.69
2022-12-04T14:52:23.995Z,101989.41
2022-12-04T14:55:06.563Z,101994.66
2022-12-04T14:57:49.869Z,101983.34
2022-12-04T15:00:22.722Z,101985.41
2022-12-04T15:03:00.518Z,101991.44
2022-12-04T15:05:31.978Z,101983.53
2022-12-04T15:08:05.160Z,101976.16
2022-12-04T15:10:53.614Z,101986.94
2022-12-04T15:13:27.880Z,101979.84
2022-12-04T15:15:54.675Z,101979.53
2022-12-04T15:18:21.704Z,101982.38
2022-12-04T15:20:48.143Z,101983.06
2022-12-04T15:23:17.212Z,101977.84
2022-12-04T15:25:47.063Z,101982.25
2022-12-04T15:28:16.611Z,101982.25
2022-12-04T15:30:44.509Z,101975.81
2022-12-04T15:33:21.243Z,101970.97
2022-12-04T15:35:54.413Z,101979.38
2022-12-04T15:38:21.188Z,101967.44
2022-12-04T15:40:56.830Z,101968.25
2022-12-04T15:43:39.446Z,101976.34
2022-12-04T15:46:14.227Z,101972.19
2022-12-04T15:48:46.337Z,101971.50
2022-12-04T15:51:18.809Z,101971.50
2022-12-04T15:53:46.758Z,101959.88
2022-12-04T15:56:19.361Z,101966.94
2022-12-04T15:58:58.742Z,101970.84
2022-12-04T16:01:25.910Z,101963.59
2022-12-04T16:03:54.360Z,101963.78
2022-12-04T16:06:31.300Z,101960.91
2022-12-04T16:09:17.450Z,101969.69
2022-12-04T16:11:44.549Z,101961.78
2022-12-04T16:14:11.020Z,101960.81
2022-12-04T16:16:42.282Z,101960.63
2022-12-04T16:19:14.661Z,101964.50
2022-12-04T16:21:41.277Z,101953.38
2022-12-04T16:24:10.672Z,101950.22
2022-12-04T16:26:37.189Z,101949.50
2022-12-04T16:29:03.905Z,101953.06
2022-12-04T16:31:30.759Z,101942.28
2022-12-04T16:33:57.482Z,101956.13
2022-12-04T16:36:23.980Z,101954.44
2022-12-04T16:38:50.560Z,101945.66
2022-12-04T16:41:18.586Z,101947.34
2022-12-04T16:43:45.519Z,101950.91
2022-12-04T16:46:17.784Z,101943.47
2022-12-04T16:48:44.375Z,101949.03
2022-12-04T16:51:16.136Z,101951.56
2022-12-04T16:53:42.891Z,101958.13
2022-12-04T16:56:10.080Z,101958.13
2022-12-04T16:58:36.994Z,101956.50
2022-12-04T17:01:05.712Z,101960.53
2022-12-04T17:03:34.086Z,101960.88
2022-12-04T17:06:01.610Z,101965.75
2022-12-04T17:08:28.670Z,101965.25
2022-12-04T17:10:55.387Z,101958.84
2022-12-04T17:13:22.864Z,101973.03
2022-12-04T17:15:49.990Z,101961.06
2022-12-04T17:18:21.085Z,101971.16
2022-12-04T17:20:48.555Z,101970.16
2022-12-04T17:23:15.087Z,101978.09
2022-12-04T17:25:42.075Z,101972.38
2022-12-04T17:28:08.732Z,101972.38
2022-12-04T17:30:36.765Z,101981.84
2022-12-04T17:33:04.261Z,101978.28
2022-12-04T17:35:30.996Z,101989.59
2022-12-04T17:38:00.764Z,101990.94
2022-12-04T17:40:32.266Z,101998.03
2022-12-04T17:42:59.334Z,101990.66
2022-12-04T17:45:26.121Z,101995.03
2022-12-04T17:47:52.732Z,101994.34
2022-12-04T17:50:19.379Z,101986.06
2022-12-04T17:52:45.897Z,101992.66
2022-12-04T17:55:12.777Z,101986.78
2022-12-04T17:57:39.344Z,101982.22
2022-12-04T18:00:06.631Z,101986.06
2022-12-04T18:02:33.258Z,101990.66
2022-12-04T18:04:59.854Z,101992.66
2022-12-04T18:07:26.373Z,101994.34
2022-12-04T18:09:52.897Z,101990.66
2022-12-04T18:12:19.404Z,101987.78
2022-12-04T18:14:45.978Z,101989.13
2022-12-04T18:17:12.578Z,101984.75
2022-12-04T18:19:39.129Z,101977.50
2022-12-04T18:22:05.694Z,101989.66
2022-12-04T18:24:32.940Z,101986.13
2022-12-04T18:26:59.558Z,101995.69
2022-12-04T18:29:26.790Z,101994.00
2022-12-04T18:31:54.180Z,101996.69
2022-12-04T18:34:21.774Z,101993.16
2022-12-04T18:36:49.069Z,102004.13
2022-12-04T18:39:20.073Z,102007.66
2022-12-04T18:41:47.009Z,102009.03
2022-12-04T18:44:14.336Z,102004.97
2022-12-04T18:46:41.940Z,102014.06
2022-12-04T18:49:10.255Z,102007.84
2022-12-04T18:51:48.865Z,102015.09
2022-12-04T18:54:18.947Z,102015.09
2022-12-04T18:56:46.093Z,102013.94
2022-12-04T18:59:25.050Z,102011.22
2022-12-04T19:01:52.677Z,102007.50
2022-12-04T19:04:22.088Z,102008.88
2022-12-04T19:06:56.149Z,102011.59
2022-12-04T19:09:47.333Z,102008.03
2022-12-04T19:12:12.927Z,102017.47
2022-12-04T19:14:39.961Z,102018.63
2022-12-04T19:17:06.698Z,102014.94
2022-12-04T19:19:33.366Z,102020.50
2022-12-04T19:22:01.194Z,102015.28
2022-12-04T19:24:27.768Z,102014.13
2022-12-04T19:26:54.686Z,102017.28
2022-12-04T19:29:21.313Z,102015.28
2022-12-04T19:31:47.896Z,102019.69
2022-12-04T19:34:14.533Z,102008.34
2022-12-04T19:36:41.745Z,102021.22
2022-12-04T19:39:08.358Z,102022.88
2022-12-04T19:41:37.052Z,102024.03
2022-12-04T19:44:26.377Z,102019.81
2022-12-04T19:46:52.262Z,102017.97
2022-12-04T19:49:18.975Z,102012.25
2022-12-04T19:51:45.496Z,102022.72
2022-12-04T19:54:13.336Z,102010.56
2022-12-04T19:56:40.247Z,102018.66
2022-12-04T19:59:07.924Z,102013.94
2022-12-04T20:01:36.398Z,102010.25
2022-12-04T20:04:05.612Z,102011.25
2022-12-04T20:06:37.390Z,102012.94
2022-12-04T20:09:07.667Z,102012.59
2022-12-04T20:11:34.867Z,102002.81
2022-12-04T20:14:02.742Z,101995.56
2022-12-04T20:16:31.312Z,101999.09
2022-12-04T20:18:59.349Z,101991.00
2022-12-04T20:21:30.438Z,101980.22
2022-12-04T20:23:59.174Z,101994.06
2022-12-04T20:26:32.516Z,101983.91
2022-12-04T20:29:02.207Z,101988.84
2022-12-04T20:31:33.464Z,101985.31
2022-12-04T20:34:02.366Z,101983.91
2022-12-04T20:36:30.744Z,101979.38
2022-12-04T20:38:59.594Z,101984.63
2022-12-04T20:41:31.322Z,101978.53
2022-12-04T20:44:04.358Z,101983.91
2022-12-04T20:46:36.873Z,101980.03
2022-12-04T20:49:08.028Z,101976.50
2022-12-04T20:51:39.302Z,101972.97
2022-12-04T20:54:07.504Z,101978.88
2022-12-04T20:56:38.807Z,101983.09
2022-12-04T20:59:09.082Z,101984.25
2022-12-04T21:01:36.248Z,101980.88
2022-12-04T21:04:04.175Z,101981.38
2022-12-04T21:06:39.096Z,101971.47
2022-12-04T21:09:08.611Z,101972.28
2022-12-04T21:11:37.817Z,101970.44
2022-12-04T21:14:25.731Z,101974.00
2022-12-04T21:16:52.586Z,101967.72
2022-12-04T21:19:21.797Z,101956.94
2022-12-04T21:21:48.985Z,101954.94
2022-12-04T21:24:20.402Z,101952.91
2022-12-04T21:26:47.681Z,101958.31
2022-12-04T21:29:15.369Z,101959.63
2022-12-04T21:31:42.583Z,101965.88
2022-12-04T21:34:12.649Z,101954.22
2022-12-04T21:36:39.411Z,101955.75
2022-12-04T21:39:06.532Z,101952.56
2022-12-04T21:41:51.991Z,101954.59
2022-12-04T21:44:20.847Z,101955.63
2022-12-04T21:46:48.316Z,101959.31
2022-12-04T21:49:15.812Z,101947.53
2022-12-04T21:51:58.906Z,101957.44
2022-12-04T21:54:29.263Z,101952.56
2022-12-04T21:56:56.738Z,101959.81
2022-12-04T21:59:25.261Z,101955.25
2022-12-04T22:01:52.405Z,101958.63
2022-12-04T22:04:19.336Z,101954.94
2022-12-04T22:06:45.847Z,101945.13
2022-12-04T22:09:13.030Z,101947.66
2022-12-04T22:11:43.626Z,101944.47
2022-12-04T22:14:11.140Z,101936.72
2022-12-04T22:16:42.291Z,101935.88
2022-12-04T22:19:10.525Z,101937.38
2022-12-04T22:21:37.409Z,101937.22
2022-12-04T22:24:04.622Z,101934.69
2022-12-04T22:26:31.837Z,101924.41
2022-12-04T22:28:58.772Z,101928.28
2022-12-04T22:31:27.406Z,101932.16
2022-12-04T22:33:56.573Z,101931.16
2022-12-04T22:36:26.377Z,101926.41
2022-12-04T22:39:08.701Z,101928.63
2022-12-04T22:41:36.889Z,101926.94
2022-12-04T22:44:03.410Z,101925.75
2022-12-04T22:46:30.054Z,101924.75
2022-12-04T22:48:58.441Z,101928.63
2022-12-04T22:51:24.977Z,101934.03
2022-12-04T22:53:54.481Z,101932.69
2022-12-04T22:56:22.270Z,101926.63
2022-12-04T22:58:48.957Z,101924.94
2022-12-04T23:01:17.242Z,101926.63
2022-12-04T23:03:45.859Z,101931.16
2022-12-04T23:06:13.345Z,101928.28
2022-12-04T23:08:41.962Z,101932.34
2022-12-04T23:11:17.546Z,101923.75
2022-12-04T23:13:49.640Z,101920.03
2022-12-04T23:16:20.102Z,101925.59
2022-12-04T23:18:48.021Z,101918.34
2022-12-04T23:21:15.777Z,101923.91
2022-12-04T23:23:44.639Z,101925.94
2022-12-04T23:26:17.659Z,101923.22
2022-12-04T23:28:44.212Z,101920.53
2022-12-04T23:31:11.293Z,101922.22
2022-12-04T23:33:38.784Z,101919.88
2022-12-04T23:36:06.343Z,101919.88
2022-12-04T23:38:35.416Z,101921.56
2022-12-04T23:41:02.981Z,101913.13
2022-12-04T23:43:29.870Z,101911.44
2022-12-04T23:45:56.966Z,101910.44
2022-12-04T23:48:24.904Z,101914.81
2022-12-04T23:50:51.551Z,101913.47
2022-12-04T23:53:18.241Z,101909.25
2022-12-04T23:55:44.768Z,101905.72
2022-12-04T23:58:11.291Z,101908.25
